Time;durP1;ratioP1;P1;durP2;ratioP2;P2;SDS_P1;SDS_P2;PMS_P1;PMS_P2;Temp;Humidity;BMP_temperature;BMP_pressure;BME280_temperature;BME280_humidity;BME280_pressure;Samples;Min_cycle;Max_cycle;Signal;HPM_P1;HPM_P2
2022/03/21 00:02:01;;;;;;;65.45;49.15;;;4.30;77.20;;;;;;4975878;28;20038;-76
2022/03/21 00:04:27;;;;;;;67.55;50.15;;;4.30;77.20;;;;;;4995595;28;20030;-75
2022/03/21 00:06:52;;;;;;;68.18;49.25;;;4.30;77.30;;;;;;5000062;28;20045;-76
2022/03/21 00:09:18;;;;;;;62.63;48.78;;;4.20;77.50;;;;;;4985006;28;20038;-77
2022/03/21 00:11:44;;;;;;;63.88;48.47;;;4.20;77.50;;;;;;4985534;28;20045;-76
2022/03/21 00:14:12;;;;;;;67.22;48.50;;;4.30;77.50;;;;;;4986361;28;20044;-77
2022/03/21 00:16:41;;;;;;;63.97;49.70;;;4.30;77.40;;;;;;4990331;28;20038;-75
2022/03/21 00:19:08;;;;;;;63.55;47.60;;;4.20;77.20;;;;;;4999367;28;20033;-77
2022/03/21 00:21:35;;;;;;;62.72;48.38;;;4.20;77.10;;;;;;5000666;28;20117;-76
2022/03/21 00:24:04;;;;;;;69.25;51.78;;;4.10;77.10;;;;;;5000404;28;20038;-75
2022/03/21 00:26:30;;;;;;;65.43;51.35;;;4.00;77.30;;;;;;5007081;28;20037;-76
2022/03/21 00:28:56;;;;;;;63.50;48.15;;;3.90;77.40;;;;;;5004062;28;20034;-76
2022/03/21 00:31:22;;;;;;;67.28;52.22;;;3.80;77.60;;;;;;4991715;28;20607;-75
2022/03/21 00:33:48;;;;;;;63.72;46.90;;;3.70;77.70;;;;;;4986087;28;20050;-76
2022/03/21 00:36:14;;;;;;;62.47;48.45;;;3.60;77.90;;;;;;4998372;28;20034;-77
2022/03/21 00:38:42;;;;;;;68.53;52.42;;;3.60;78.00;;;;;;5000676;28;20041;-77
2022/03/21 00:41:08;;;;;;;68.07;49.90;;;3.50;78.20;;;;;;4987399;28;20034;-77
2022/03/21 00:43:34;;;;;;;65.88;49.85;;;3.40;78.40;;;;;;4983820;28;20049;-77
2022/03/21 00:46:01;;;;;;;66.55;50.53;;;3.40;78.60;;;;;;4995394;28;20172;-76
2022/03/21 00:48:29;;;;;;;64.95;49.78;;;3.40;78.70;;;;;;4988271;28;20042;-77
2022/03/21 00:50:56;;;;;;;70.35;51.17;;;3.40;78.90;;;;;;5000468;28;20463;-79
2022/03/21 00:53:22;;;;;;;66.68;50.50;;;3.30;78.90;;;;;;4984933;28;20050;-76
2022/03/21 00:55:49;;;;;;;71.68;51.45;;;3.30;79.00;;;;;;4987448;28;20429;-77
2022/03/21 00:58:17;;;;;;;69.90;50.70;;;3.20;79.10;;;;;;4984799;28;20489;-80
2022/03/21 01:00:43;;;;;;;66.22;49.47;;;3.20;79.10;;;;;;4993473;28;20044;-76
2022/03/21 01:03:09;;;;;;;67.13;49.72;;;3.20;79.20;;;;;;4995001;28;20097;-76
2022/03/21 01:05:35;;;;;;;69.53;51.10;;;3.10;79.30;;;;;;4987961;28;20435;-77
2022/03/21 01:08:02;;;;;;;70.35;51.33;;;3.10;79.40;;;;;;5001489;28;20026;-78
2022/03/21 01:10:30;;;;;;;73.25;50.92;;;3.10;79.50;;;;;;4991427;28;20033;-76
2022/03/21 01:12:56;;;;;;;72.32;53.05;;;3.10;79.70;;;;;;5000164;28;20444;-76
2022/03/21 01:15:25;;;;;;;73.88;53.15;;;3.10;79.80;;;;;;4992172;28;20064;-76
2022/03/21 01:17:53;;;;;;;71.22;51.50;;;3.00;79.90;;;;;;4990713;28;20096;-76
2022/03/21 01:20:20;;;;;;;71.43;53.97;;;3.00;80.00;;;;;;4983857;28;20522;-75
2022/03/21 01:22:47;;;;;;;72.53;53.65;;;3.00;80.10;;;;;;4988666;28;20405;-75
2022/03/21 01:25:14;;;;;;;73.05;54.47;;;3.00;80.30;;;;;;4988922;28;20328;-76
2022/03/21 01:27:41;;;;;;;78.70;57.63;;;2.90;80.40;;;;;;4988372;28;20042;-75
2022/03/21 01:30:09;;;;;;;80.55;57.20;;;2.90;80.50;;;;;;4994973;28;20492;-75
2022/03/21 01:32:36;;;;;;;75.43;57.10;;;2.90;80.50;;;;;;4993512;28;20062;-76
2022/03/21 01:35:03;;;;;;;75.18;54.80;;;2.90;80.70;;;;;;4988614;28;20406;-75
2022/03/21 01:37:29;;;;;;;76.13;55.53;;;2.80;80.80;;;;;;4999054;28;20038;-74
2022/03/21 01:39:55;;;;;;;76.18;54.90;;;2.80;80.90;;;;;;4994275;28;20088;-77
2022/03/21 01:42:21;;;;;;;69.50;51.92;;;2.70;80.90;;;;;;4993740;28;20124;-75
2022/03/21 01:44:51;;;;;;;76.57;52.88;;;2.70;80.90;;;;;;5000335;28;20491;-75
2022/03/21 01:47:17;;;;;;;74.80;55.70;;;2.70;80.90;;;;;;4992471;28;20040;-75
2022/03/21 01:49:43;;;;;;;74.05;54.58;;;2.70;80.90;;;;;;4992172;28;20041;-74
2022/03/21 01:52:09;;;;;;;75.70;57.53;;;2.70;80.90;;;;;;4985643;28;20046;-76
2022/03/21 01:57:21;;;;;;;78.00;55.97;;;2.60;81.00;;;;;;4994324;28;20045;-76
2022/03/21 01:59:48;;;;;;;83.18;58.35;;;2.60;81.10;;;;;;4979444;28;20480;-75
2022/03/21 02:02:14;;;;;;;79.03;56.05;;;2.60;81.10;;;;;;4993878;28;20305;-76
2022/03/21 02:04:42;;;;;;;82.32;59.28;;;2.50;81.20;;;;;;4991058;28;20041;-75
2022/03/21 02:07:08;;;;;;;82.50;57.95;;;2.50;81.20;;;;;;4981871;28;20037;-75
2022/03/21 02:09:35;;;;;;;83.47;59.42;;;2.40;81.40;;;;;;4997557;28;20044;-77
2022/03/21 02:12:01;;;;;;;77.95;56.80;;;2.40;81.50;;;;;;4990651;28;20034;-74
2022/03/21 02:14:27;;;;;;;79.20;57.50;;;2.40;81.60;;;;;;4995419;28;20088;-75
2022/03/21 02:16:53;;;;;;;77.55;55.38;;;2.30;81.70;;;;;;4990463;28;20061;-76
2022/03/21 02:19:29;;;;;;;74.68;54.63;;;2.30;81.80;;;;;;4994308;28;20566;-76
2022/03/21 02:22:01;;;;;;;82.20;58.03;;;2.40;81.80;;;;;;5002791;28;20081;-76
2022/03/21 02:24:37;;;;;;;83.57;60.13;;;2.30;81.90;;;;;;4996509;28;20085;-77
2022/03/21 02:27:03;;;;;;;84.05;59.92;;;2.30;82.00;;;;;;4999353;28;20049;-77
2022/03/21 02:29:30;;;;;;;85.18;62.08;;;2.30;82.10;;;;;;4991790;28;20057;-74
2022/03/21 02:31:56;;;;;;;86.13;59.50;;;2.30;82.20;;;;;;4998739;28;20037;-75
2022/03/21 02:34:27;;;;;;;83.70;59.13;;;2.20;82.30;;;;;;4990045;28;20030;-75
2022/03/21 02:36:56;;;;;;;83.47;58.13;;;2.20;82.50;;;;;;4991371;28;20036;-77
2022/03/21 02:39:23;;;;;;;94.72;60.63;;;2.20;82.60;;;;;;5005233;28;20039;-76
2022/03/21 02:41:49;;;;;;;82.28;59.70;;;2.30;82.70;;;;;;5007414;28;20054;-74
2022/03/21 02:44:14;;;;;;;87.28;59.60;;;2.30;82.60;;;;;;4997771;28;20169;-75
2022/03/21 02:46:40;;;;;;;84.10;60.45;;;2.20;82.60;;;;;;4987526;28;20042;-76
2022/03/21 02:49:06;;;;;;;80.10;59.22;;;2.20;82.60;;;;;;4994826;28;20487;-74
2022/03/21 02:51:36;;;;;;;84.05;60.75;;;2.20;82.70;;;;;;4998433;28;20467;-74
2022/03/21 02:54:02;;;;;;;78.40;58.03;;;2.10;82.70;;;;;;4983019;28;20430;-74
2022/03/21 02:56:28;;;;;;;82.50;58.33;;;2.10;82.80;;;;;;4988483;28;20324;-74
2022/03/21 02:58:54;;;;;;;83.07;60.25;;;2.10;82.80;;;;;;4990773;28;20045;-74
2022/03/21 03:01:20;;;;;;;87.50;60.75;;;2.10;82.80;;;;;;5003111;28;20025;-75
2022/03/21 03:03:46;;;;;;;83.55;59.83;;;2.10;82.80;;;;;;4990793;28;20046;-75
2022/03/21 03:06:12;;;;;;;87.05;60.95;;;2.10;82.80;;;;;;4996832;28;20034;-75
2022/03/21 03:08:41;;;;;;;84.75;60.92;;;2.00;82.80;;;;;;4980914;28;20393;-76
2022/03/21 03:11:06;;;;;;;81.65;58.03;;;2.00;83.00;;;;;;4994708;28;20520;-76
2022/03/21 03:13:32;;;;;;;87.10;58.78;;;2.00;82.90;;;;;;4986729;28;20034;-75
2022/03/21 03:15:59;;;;;;;81.35;59.83;;;1.90;82.90;;;;;;4996160;28;20042;-76
2022/03/21 03:18:24;;;;;;;85.18;59.50;;;1.90;82.90;;;;;;4979009;28;20038;-75
2022/03/21 03:20:53;;;;;;;81.03;59.05;;;1.90;83.00;;;;;;4998344;28;20095;-76
2022/03/21 03:23:21;;;;;;;80.75;58.22;;;1.90;83.10;;;;;;4995762;28;20453;-77
2022/03/21 03:25:48;;;;;;;84.00;57.03;;;1.90;83.10;;;;;;4991420;28;20069;-74
2022/03/21 03:28:14;;;;;;;79.22;57.45;;;1.90;83.20;;;;;;5000292;28;20034;-75
2022/03/21 03:30:41;;;;;;;77.68;56.55;;;1.90;83.00;;;;;;4994142;28;20041;-74
2022/03/21 03:33:09;;;;;;;81.97;56.00;;;1.90;82.90;;;;;;4997872;28;20362;-75
2022/03/21 03:35:36;;;;;;;83.32;58.88;;;1.90;82.80;;;;;;4999224;28;20423;-75
2022/03/21 03:38:03;;;;;;;81.38;57.55;;;1.80;82.90;;;;;;4983062;28;20057;-75
2022/03/21 03:40:29;;;;;;;83.70;59.28;;;1.80;83.00;;;;;;4995315;28;20465;-74
2022/03/21 03:42:54;;;;;;;80.53;59.63;;;1.70;83.10;;;;;;4980508;28;20043;-76
2022/03/21 03:45:21;;;;;;;83.20;58.35;;;1.70;83.20;;;;;;4988375;28;20121;-75
2022/03/21 03:47:46;;;;;;;84.40;60.28;;;1.70;83.30;;;;;;4994739;28;20056;-75
2022/03/21 03:50:12;;;;;;;82.20;57.55;;;1.70;83.30;;;;;;4984970;28;20485;-74
2022/03/21 03:52:40;;;;;;;80.93;60.75;;;1.70;83.30;;;;;;4996273;28;20052;-74
2022/03/21 03:55:06;;;;;;;79.45;57.78;;;1.60;83.30;;;;;;4990161;28;20537;-75
2022/03/21 03:57:32;;;;;;;88.20;58.30;;;1.60;83.30;;;;;;4981719;28;20042;-75
2022/03/21 03:59:58;;;;;;;85.50;58.58;;;1.60;83.40;;;;;;4985786;28;20041;-74
2022/03/21 04:02:24;;;;;;;88.60;58.22;;;1.60;83.40;;;;;;5003100;28;20034;-74
2022/03/21 04:04:50;;;;;;;86.13;57.33;;;1.60;83.40;;;;;;4991395;28;20034;-75
2022/03/21 04:07:18;;;;;;;88.85;58.72;;;1.60;83.40;;;;;;4976289;28;20071;-77
2022/03/21 04:09:44;;;;;;;87.00;56.90;;;1.60;83.40;;;;;;4975335;28;20485;-76
2022/03/21 04:12:10;;;;;;;82.03;57.67;;;1.50;83.50;;;;;;4981898;28;20508;-76
2022/03/21 04:14:36;;;;;;;84.13;57.97;;;1.50;83.60;;;;;;5001487;28;20030;-75
2022/03/21 04:17:02;;;;;;;88.55;57.38;;;1.50;83.60;;;;;;4982086;28;20031;-75
2022/03/21 04:19:27;;;;;;;86.82;58.40;;;1.50;83.60;;;;;;4999441;28;20204;-74
2022/03/21 04:21:53;;;;;;;85.78;57.92;;;1.50;83.70;;;;;;4986830;28;20030;-75
2022/03/21 04:24:19;;;;;;;84.65;57.28;;;1.50;83.70;;;;;;4997569;28;20045;-75
2022/03/21 04:26:45;;;;;;;80.30;55.42;;;1.40;83.60;;;;;;4999423;28;20037;-75
2022/03/21 04:29:10;;;;;;;79.22;56.10;;;1.40;83.70;;;;;;4978380;28;20368;-76
2022/03/21 04:31:36;;;;;;;84.35;55.05;;;1.40;83.80;;;;;;4992281;28;20039;-76
2022/03/21 04:34:02;;;;;;;86.28;57.03;;;1.40;83.80;;;;;;4999651;28;21000;-76
2022/03/21 04:36:29;;;;;;;89.35;56.78;;;1.40;83.80;;;;;;4995771;28;20065;-76
2022/03/21 04:38:55;;;;;;;88.00;59.47;;;1.30;83.80;;;;;;4996086;28;20022;-75
2022/03/21 04:41:21;;;;;;;85.38;56.60;;;1.40;83.90;;;;;;4991409;28;20077;-74
2022/03/21 04:43:47;;;;;;;87.65;59.75;;;1.30;83.90;;;;;;4998627;28;20038;-74
2022/03/21 04:46:13;;;;;;;87.18;58.65;;;1.30;83.90;;;;;;4997312;28;20107;-74
2022/03/21 04:48:39;;;;;;;82.25;56.17;;;1.30;83.90;;;;;;5001148;28;20026;-76
2022/03/21 04:51:05;;;;;;;79.25;54.38;;;1.40;84.00;;;;;;4999484;28;20056;-75
2022/03/21 04:53:30;;;;;;;81.95;54.17;;;1.30;83.90;;;;;;4993535;28;20042;-74
2022/03/21 04:55:56;;;;;;;80.00;54.70;;;1.30;84.00;;;;;;5000007;28;20077;-75
2022/03/21 04:58:22;;;;;;;74.75;51.67;;;1.30;83.90;;;;;;5001588;28;20030;-75
2022/03/21 05:00:48;;;;;;;79.65;55.20;;;1.30;83.80;;;;;;5005034;28;20107;-75
2022/03/21 05:03:14;;;;;;;81.28;54.63;;;1.30;83.90;;;;;;4988791;28;20038;-75
2022/03/21 05:05:39;;;;;;;79.32;52.80;;;1.20;83.70;;;;;;4994580;28;20037;-75
2022/03/21 05:08:05;;;;;;;78.88;52.53;;;1.20;83.70;;;;;;4990682;28;20366;-76
2022/03/21 05:10:31;;;;;;;80.38;54.70;;;1.10;83.60;;;;;;4977847;28;20564;-76
2022/03/21 05:12:57;;;;;;;80.88;54.35;;;1.20;83.60;;;;;;5000234;28;20381;-75
2022/03/21 05:15:24;;;;;;;75.38;52.30;;;1.20;83.60;;;;;;4976928;28;20677;-74
2022/03/21 05:17:53;;;;;;;80.25;52.13;;;1.20;83.70;;;;;;5002098;28;20527;-75
2022/03/21 05:20:19;;;;;;;76.10;52.78;;;1.20;83.60;;;;;;5003135;28;20209;-76
2022/03/21 05:31:04;;;;;;;77.07;51.10;;;1.10;83.60;;;;;;4989806;28;20111;-75
2022/03/21 05:36:17;;;;;;;84.18;53.15;;;1.10;83.60;;;;;;4987112;28;20086;-76
2022/03/21 05:38:43;;;;;;;75.82;49.90;;;1.10;83.80;;;;;;4990594;28;20087;-75
2022/03/21 05:41:09;;;;;;;76.07;50.28;;;1.10;83.60;;;;;;4995047;28;20420;-77
2022/03/21 05:43:35;;;;;;;71.35;47.58;;;1.10;83.70;;;;;;4997267;28;20038;-77
2022/03/21 05:46:01;;;;;;;69.63;48.92;;;1.10;83.70;;;;;;4980895;28;20065;-76
2022/03/21 05:51:12;;;;;;;76.47;49.80;;;1.10;83.70;;;;;;4995648;28;20053;-75
2022/03/21 05:53:38;;;;;;;72.30;49.53;;;1.10;83.60;;;;;;4995890;28;20382;-75
2022/03/21 05:56:04;;;;;;;80.13;49.47;;;1.10;83.60;;;;;;4999595;28;20116;-76
2022/03/21 05:58:31;;;;;;;73.53;48.38;;;1.20;83.70;;;;;;4992596;28;20030;-76
2022/03/21 06:00:56;;;;;;;74.10;48.58;;;1.20;83.60;;;;;;4999171;28;20113;-75
2022/03/21 06:03:24;;;;;;;80.30;52.22;;;1.20;83.50;;;;;;4993494;28;20393;-74
2022/03/21 06:05:50;;;;;;;76.07;52.25;;;1.20;83.50;;;;;;4992004;28;20085;-76
2022/03/21 06:08:16;;;;;;;76.03;48.55;;;1.20;83.40;;;;;;4990330;28;20575;-74
2022/03/21 06:10:42;;;;;;;73.53;49.33;;;1.30;83.40;;;;;;4987624;28;20046;-75
2022/03/21 06:13:08;;;;;;;82.22;53.92;;;1.30;83.20;;;;;;4991479;28;20092;-75
2022/03/21 06:15:37;;;;;;;73.25;49.67;;;1.30;83.10;;;;;;4995685;28;20113;-76
2022/03/21 06:18:09;;;;;;;75.63;49.55;;;1.40;83.00;;;;;;5010844;28;20318;-77
2022/03/21 06:20:36;;;;;;;66.95;45.45;;;1.40;82.90;;;;;;5014171;28;20042;-77
2022/03/21 06:23:02;;;;;;;71.90;47.83;;;1.40;82.80;;;;;;5000656;28;20048;-76
2022/03/21 06:25:27;;;;;;;74.50;48.35;;;1.40;82.70;;;;;;5007368;28;20217;-75
2022/03/21 06:27:53;;;;;;;66.43;46.22;;;1.50;82.60;;;;;;4993051;28;20112;-75
2022/03/21 06:30:19;;;;;;;66.32;45.50;;;1.60;82.60;;;;;;4988294;28;20074;-77
2022/03/21 06:32:44;;;;;;;68.65;46.45;;;1.60;82.50;;;;;;5004732;28;20038;-75
2022/03/21 06:35:10;;;;;;;66.55;46.50;;;1.60;82.30;;;;;;4998277;28;20041;-76
2022/03/21 06:37:37;;;;;;;71.28;45.45;;;1.70;82.30;;;;;;4987341;28;20042;-75
2022/03/21 06:40:03;;;;;;;71.85;46.28;;;1.90;82.60;;;;;;5001279;28;20034;-77
2022/03/21 06:42:29;;;;;;;65.72;45.10;;;2.50;81.90;;;;;;4993357;28;20041;-73
2022/03/21 06:44:55;;;;;;;69.28;47.42;;;3.40;80.10;;;;;;4992910;28;20038;-76
2022/03/21 06:47:20;;;;;;;56.47;42.50;;;4.30;77.60;;;;;;4993561;28;20042;-74
2022/03/21 06:49:47;;;;;;;64.78;46.13;;;5.00;74.50;;;;;;4990824;28;20053;-76
2022/03/21 06:52:13;;;;;;;65.38;46.50;;;5.50;72.00;;;;;;4994979;28;20045;-71
2022/03/21 06:54:42;;;;;;;59.80;44.42;;;6.00;70.10;;;;;;4981594;28;20046;-72
2022/03/21 06:57:08;;;;;;;66.10;51.25;;;6.20;68.70;;;;;;4972429;28;20371;-74
2022/03/21 06:59:34;;;;;;;63.30;47.22;;;6.20;67.10;;;;;;5000820;28;20155;-75
2022/03/21 07:02:00;;;;;;;62.80;46.50;;;5.80;67.70;;;;;;4981528;28;20148;-71
2022/03/21 07:04:26;;;;;;;69.32;49.08;;;5.30;69.50;;;;;;4992601;28;20053;-72
2022/03/21 07:06:53;;;;;;;66.43;46.95;;;4.90;70.80;;;;;;5003473;28;20034;-74
2022/03/21 07:09:19;;;;;;;67.28;47.67;;;4.60;72.20;;;;;;4990569;28;20045;-73
2022/03/21 07:11:44;;;;;;;67.82;47.35;;;4.40;73.00;;;;;;4996546;28;20030;-73
2022/03/21 07:14:10;;;;;;;61.65;44.58;;;4.30;73.80;;;;;;4994315;28;20238;-72
2022/03/21 07:16:36;;;;;;;66.05;45.63;;;4.20;74.40;;;;;;5002224;28;20596;-71
2022/03/21 07:19:01;;;;;;;62.13;44.08;;;4.30;74.60;;;;;;4992188;28;20064;-72
2022/03/21 07:21:27;;;;;;;56.05;41.40;;;4.20;74.90;;;;;;5001955;28;20038;-71
2022/03/21 07:23:53;;;;;;;61.13;41.85;;;4.20;75.20;;;;;;4994032;28;20081;-72
2022/03/21 07:26:18;;;;;;;61.50;43.75;;;4.20;75.50;;;;;;4990398;28;20168;-72
2022/03/21 07:28:44;;;;;;;62.83;43.55;;;4.30;75.40;;;;;;4995953;28;20045;-71
2022/03/21 07:31:10;;;;;;;61.78;44.17;;;4.30;75.80;;;;;;4996826;28;20030;-70
2022/03/21 07:33:40;;;;;;;56.40;41.72;;;4.40;75.80;;;;;;4990969;28;20133;-71
2022/03/21 07:36:06;;;;;;;59.08;44.92;;;4.40;76.00;;;;;;4995613;28;20030;-72
2022/03/21 07:38:32;;;;;;;66.15;44.25;;;4.50;75.90;;;;;;4991615;28;20082;-73
2022/03/21 07:40:58;;;;;;;62.03;43.00;;;4.60;76.10;;;;;;4993580;28;20463;-72
2022/03/21 07:43:23;;;;;;;63.20;43.15;;;4.60;76.20;;;;;;4987347;28;20600;-75
2022/03/21 07:48:33;;;;;;;65.93;47.53;;;4.90;75.90;;;;;;4991000;28;20057;-72
2022/03/21 07:50:59;;;;;;;61.53;43.75;;;5.10;75.60;;;;;;4991634;28;20041;-72
2022/03/21 07:53:25;;;;;;;57.92;40.55;;;5.20;75.30;;;;;;4994996;28;20046;-72
2022/03/21 07:55:50;;;;;;;56.45;41.13;;;5.40;74.70;;;;;;4997245;28;20037;-72
2022/03/21 07:58:16;;;;;;;55.42;38.55;;;5.60;74.10;;;;;;4992593;28;20037;-71
2022/03/21 08:00:43;;;;;;;52.50;38.45;;;5.90;73.90;;;;;;4998480;28;20469;-73
2022/03/21 08:03:14;;;;;;;53.58;38.42;;;6.10;73.10;;;;;;4986938;28;20043;-71
2022/03/21 08:05:40;;;;;;;52.45;36.25;;;6.40;73.30;;;;;;4984861;28;20035;-71
2022/03/21 08:08:07;;;;;;;47.78;35.75;;;6.60;71.70;;;;;;4996660;28;20030;-72
2022/03/21 08:10:33;;;;;;;49.80;36.60;;;6.90;71.80;;;;;;4996071;28;20050;-74
2022/03/21 08:12:59;;;;;;;49.78;36.67;;;7.20;70.70;;;;;;4995029;28;20030;-71
2022/03/21 08:15:28;;;;;;;47.53;35.00;;;7.40;69.60;;;;;;4991572;28;20615;-72
2022/03/21 08:17:56;;;;;;;45.88;34.22;;;7.60;68.80;;;;;;4995404;28;20125;-73
2022/03/21 08:20:23;;;;;;;50.78;35.95;;;7.80;69.10;;;;;;5000823;28;20026;-72
2022/03/21 08:22:50;;;;;;;48.50;34.30;;;8.00;67.60;;;;;;4991737;28;20315;-72
2022/03/21 08:25:17;;;;;;;45.17;33.67;;;8.20;68.50;;;;;;4998675;28;20185;-74
2022/03/21 08:27:43;;;;;;;43.22;31.30;;;8.40;67.00;;;;;;4993768;28;20033;-74
2022/03/21 08:30:11;;;;;;;44.60;32.58;;;8.60;66.70;;;;;;4987485;28;20393;-74
2022/03/21 08:32:37;;;;;;;46.17;32.20;;;8.90;66.40;;;;;;4992361;28;20520;-75
2022/03/21 08:35:03;;;;;;;45.38;32.58;;;9.10;66.10;;;;;;4973807;28;20128;-75
2022/03/21 08:37:28;;;;;;;39.53;30.10;;;9.30;65.10;;;;;;4994602;28;20081;-74
2022/03/21 08:39:54;;;;;;;45.38;32.72;;;9.60;66.40;;;;;;4988901;28;20406;-76
2022/03/21 08:42:20;;;;;;;42.83;31.90;;;9.70;65.20;;;;;;4975803;28;20042;-73
2022/03/21 08:44:46;;;;;;;47.20;33.85;;;10.00;65.20;;;;;;4991974;28;20478;-73
2022/03/21 08:47:11;;;;;;;48.45;35.63;;;10.20;66.30;;;;;;4986088;28;20387;-74
2022/03/21 08:49:37;;;;;;;46.80;34.90;;;10.40;64.90;;;;;;4992590;28;20336;-72
2022/03/21 08:52:06;;;;;;;44.75;34.47;;;10.60;64.70;;;;;;4984737;28;20573;-73
2022/03/21 08:54:32;;;;;;;49.72;35.05;;;10.80;64.30;;;;;;4983997;28;20053;-74
2022/03/21 08:56:58;;;;;;;44.65;32.15;;;11.00;63.80;;;;;;4999626;28;20037;-74
2022/03/21 08:59:24;;;;;;;42.95;31.98;;;11.10;62.40;;;;;;4983270;28;20135;-75
2022/03/21 09:01:51;;;;;;;45.42;33.88;;;11.40;63.70;;;;;;4995710;28;20121;-75
2022/03/21 09:04:17;;;;;;;44.72;34.30;;;11.60;63.10;;;;;;4993832;28;20045;-77
2022/03/21 09:06:43;;;;;;;45.05;35.13;;;11.70;63.10;;;;;;4993069;28;20401;-73
2022/03/21 09:09:09;;;;;;;45.53;32.63;;;11.90;62.70;;;;;;4986600;28;20050;-73
2022/03/21 09:11:35;;;;;;;43.03;31.00;;;12.00;63.00;;;;;;4990240;28;20039;-75
2022/03/21 09:14:01;;;;;;;40.10;30.40;;;12.10;63.00;;;;;;4991042;28;20033;-73
2022/03/21 09:16:27;;;;;;;41.42;32.85;;;12.30;61.70;;;;;;4990486;28;20045;-74
2022/03/21 09:18:52;;;;;;;36.40;25.70;;;12.50;62.20;;;;;;4992292;28;20557;-73
2022/03/21 09:21:18;;;;;;;33.05;23.38;;;12.70;58.90;;;;;;4986644;28;20038;-72
2022/03/21 09:23:44;;;;;;;35.85;25.83;;;12.60;57.50;;;;;;4991300;28;20062;-76
2022/03/21 09:26:11;;;;;;;35.75;25.83;;;12.60;57.70;;;;;;4989431;28;20041;-73
2022/03/21 09:28:39;;;;;;;33.63;25.10;;;12.50;57.60;;;;;;4995055;28;20601;-73
2022/03/21 09:31:07;;;;;;;33.92;23.75;;;12.60;57.10;;;;;;4993983;28;20468;-72
2022/03/21 09:33:34;;;;;;;33.10;24.13;;;12.80;57.70;;;;;;4990493;28;20073;-73
2022/03/21 09:36:00;;;;;;;32.70;23.55;;;12.90;57.00;;;;;;4987475;28;20076;-74
2022/03/21 09:38:25;;;;;;;30.30;22.58;;;13.00;57.30;;;;;;4989538;28;20034;-75
2022/03/21 09:40:51;;;;;;;32.40;22.13;;;13.10;56.40;;;;;;4993691;28;20053;-73
2022/03/21 09:43:17;;;;;;;32.10;23.02;;;13.10;57.10;;;;;;4986482;28;20065;-71
2022/03/21 09:45:43;;;;;;;31.25;22.85;;;13.20;56.90;;;;;;4993627;28;20482;-74
2022/03/21 09:48:12;;;;;;;28.75;20.65;;;13.40;57.10;;;;;;4988824;28;20041;-75
2022/03/21 09:50:44;;;;;;;30.17;22.13;;;13.50;56.10;;;;;;4985470;28;20053;-75
2022/03/21 09:53:12;;;;;;;27.67;20.67;;;13.60;55.20;;;;;;4993695;28;20132;-72
2022/03/21 09:55:39;;;;;;;32.35;22.02;;;13.70;54.90;;;;;;4999133;28;20282;-73
2022/03/21 09:58:05;;;;;;;26.73;20.63;;;13.80;54.40;;;;;;4985768;28;20033;-74
2022/03/21 10:00:32;;;;;;;30.50;21.88;;;13.80;53.80;;;;;;4987341;28;20263;-73
2022/03/21 10:02:58;;;;;;;27.08;20.73;;;13.80;54.20;;;;;;4987024;28;20498;-73
2022/03/21 10:05:31;;;;;;;30.52;21.98;;;14.00;54.00;;;;;;4997026;28;20172;-77
2022/03/21 10:08:09;;;;;;;31.95;22.55;;;14.10;55.00;;;;;;4994351;28;20037;-73
2022/03/21 10:10:35;;;;;;;32.10;22.27;;;14.20;54.50;;;;;;4971996;28;21062;-74
2022/03/21 10:13:02;;;;;;;27.25;20.85;;;14.10;53.80;;;;;;4989968;28;20045;-73
2022/03/21 10:15:29;;;;;;;31.15;22.40;;;14.00;53.80;;;;;;5000212;28;20045;-72
2022/03/21 10:18:11;;;;;;;26.77;20.92;;;14.10;54.10;;;;;;4984129;28;20046;-74
2022/03/21 10:20:38;;;;;;;28.02;21.58;;;14.40;54.30;;;;;;4982607;28;20042;-76
2022/03/21 10:23:23;;;;;;;27.60;20.35;;;14.60;53.40;;;;;;4990762;28;20607;-76
2022/03/21 10:25:49;;;;;;;;;;;14.60;53.50;;;;;;4994674;28;20076;-73
2022/03/21 10:28:36;;;;;;;27.75;21.70;;;14.70;53.10;;;;;;4988545;28;19913;-73
2022/03/21 10:31:03;;;;;;;28.73;21.27;;;14.60;53.60;;;;;;4987417;28;20112;-75
2022/03/21 10:33:29;;;;;;;27.30;21.52;;;14.60;53.00;;;;;;4983736;28;20042;-73
2022/03/21 10:35:55;;;;;;;28.90;21.42;;;14.60;53.60;;;;;;4987092;28;20036;-77
2022/03/21 10:38:32;;;;;;;28.80;21.42;;;14.70;54.00;;;;;;4984300;28;20133;-75
2022/03/21 10:41:04;;;;;;;28.00;21.05;;;14.90;53.70;;;;;;4993061;28;20031;-72
2022/03/21 10:43:30;;;;;;;30.20;22.88;;;15.10;52.70;;;;;;4991873;28;20084;-75
2022/03/21 10:45:56;;;;;;;28.38;22.15;;;15.10;53.30;;;;;;4987429;28;20121;-76
2022/03/21 10:48:30;;;;;;;30.92;23.08;;;15.20;53.80;;;;;;4983191;28;20986;-74
2022/03/21 10:51:01;;;;;;;28.02;21.95;;;15.20;53.50;;;;;;4986389;28;20033;-75
2022/03/21 10:53:40;;;;;;;28.48;22.35;;;15.10;53.50;;;;;;4988106;28;20131;-72
2022/03/21 10:56:09;;;;;;;28.58;22.13;;;15.30;53.00;;;;;;4982228;28;20038;-72
2022/03/21 10:58:47;;;;;;;28.55;21.73;;;15.50;52.10;;;;;;4993385;28;20037;-71
2022/03/21 11:01:17;;;;;;;28.92;23.00;;;15.50;53.70;;;;;;4994846;28;20041;-75
2022/03/21 11:03:51;;;;;;;29.08;23.17;;;15.70;53.30;;;;;;4983160;28;20153;-74
2022/03/21 11:06:18;;;;;;;27.92;21.52;;;15.70;52.50;;;;;;4986515;28;20050;-74
2022/03/21 11:08:47;;;;;;;30.92;22.83;;;15.80;52.00;;;;;;4996567;28;20061;-73
2022/03/21 11:11:13;;;;;;;27.15;21.52;;;16.10;51.30;;;;;;4992496;28;20041;-75
2022/03/21 11:13:39;;;;;;;27.45;22.15;;;16.20;51.80;;;;;;4979601;28;20441;-73
2022/03/21 11:16:05;;;;;;;27.38;22.02;;;16.30;52.10;;;;;;4992286;28;20571;-77
2022/03/21 11:18:31;;;;;;;28.70;22.02;;;16.40;51.80;;;;;;4986644;28;20415;-76
2022/03/21 11:20:58;;;;;;;28.30;21.58;;;16.50;50.90;;;;;;4995300;28;20133;-74
2022/03/21 11:23:27;;;;;;;29.25;21.13;;;16.60;51.00;;;;;;4990280;28;20104;-77
2022/03/21 11:26:36;;;;;;;29.55;22.88;;;16.70;50.90;;;;;;4988679;28;20112;-74
2022/03/21 11:29:29;;;;;;;28.40;22.55;;;16.70;51.00;;;;;;4968729;28;20248;-73
2022/03/21 11:32:17;;;;;;;32.85;23.40;;;16.90;51.60;;;;;;4973320;28;20374;-76
2022/03/21 11:34:47;;;;;;;29.90;22.98;;;17.00;50.40;;;;;;4981247;28;20065;-73
2022/03/21 11:37:24;;;;;;;34.00;25.35;;;16.90;49.70;;;;;;4987177;28;20038;-76
2022/03/21 11:39:49;;;;;;;28.95;22.88;;;17.00;49.80;;;;;;4991411;28;20049;-72
2022/03/21 11:42:22;;;;;;;29.65;22.42;;;17.10;51.40;;;;;;4966012;28;20030;-73
2022/03/21 11:45:23;;;;;;;29.67;23.77;;;17.10;51.50;;;;;;4984961;28;20113;-73
2022/03/21 11:47:49;;;;;;;31.02;23.02;;;17.20;50.70;;;;;;4983992;28;20046;-74
2022/03/21 11:50:26;;;;;;;31.33;22.83;;;17.20;50.80;;;;;;4992922;28;20552;-75
2022/03/21 11:53:11;;;;;;;27.27;21.27;;;17.10;51.40;;;;;;4981250;28;20060;-75
2022/03/21 11:55:42;;;;;;;28.08;22.23;;;17.30;51.30;;;;;;4985843;28;20048;-76
2022/03/21 11:58:23;;;;;;;29.25;22.95;;;17.30;51.20;;;;;;4987735;28;20034;-73
2022/03/21 12:01:01;;;;;;;29.25;23.08;;;17.30;51.90;;;;;;4986465;28;20103;-73
2022/03/21 12:03:27;;;;;;;31.77;23.20;;;17.30;52.00;;;;;;4990913;28;20046;-73
2022/03/21 12:05:53;;;;;;;29.15;22.48;;;17.50;50.50;;;;;;4980659;28;20026;-76
2022/03/21 12:08:33;;;;;;;29.20;21.30;;;17.60;50.70;;;;;;4984618;28;20034;-75
2022/03/21 12:10:58;;;;;;;25.80;20.75;;;17.80;50.40;;;;;;4976101;28;20111;-75
2022/03/21 12:13:24;;;;;;;28.60;20.80;;;17.90;50.50;;;;;;4988855;28;20034;-74
2022/03/21 12:15:51;;;;;;;28.95;21.85;;;18.00;50.00;;;;;;4986341;28;20048;-73
2022/03/21 12:18:19;;;;;;;29.73;22.27;;;18.00;49.80;;;;;;4993755;28;20384;-73
2022/03/21 12:20:50;;;;;;;32.28;21.92;;;18.10;50.20;;;;;;4998818;28;20061;-72
2022/03/21 12:23:21;;;;;;;27.27;20.50;;;18.10;50.60;;;;;;4994825;28;20116;-74
2022/03/21 12:25:51;;;;;;;26.25;21.73;;;18.20;49.60;;;;;;4998073;28;20088;-74
2022/03/21 12:31:41;;;;;;;27.75;21.55;;;18.30;49.00;;;;;;4986050;28;20080;-79
2022/03/21 12:34:36;;;;;;;26.38;21.10;;;18.20;50.40;;;;;;4970983;28;20093;-74
2022/03/21 12:37:25;;;;;;;26.52;21.05;;;18.30;49.80;;;;;;4982846;28;20119;-72
2022/03/21 12:39:53;;;;;;;29.25;19.17;;;18.20;48.60;;;;;;4992976;28;21000;-73
2022/03/21 12:42:21;;;;;;;29.50;21.67;;;18.20;49.90;;;;;;4992615;28;20050;-74
2022/03/21 12:44:47;;;;;;;25.90;20.20;;;18.40;50.30;;;;;;4976281;28;20108;-72
2022/03/21 12:47:13;;;;;;;27.13;20.25;;;18.40;49.50;;;;;;4963741;28;20046;-73
2022/03/21 12:49:49;;;;;;;28.00;20.40;;;18.50;49.70;;;;;;4975316;28;20137;-75
2022/03/21 12:52:27;;;;;;;23.95;19.48;;;18.50;49.50;;;;;;4982297;28;20049;-77
2022/03/21 12:54:53;;;;;;;24.23;19.80;;;18.60;49.50;;;;;;4988044;28;20450;-74
2022/03/21 12:57:19;;;;;;;26.85;21.20;;;18.70;50.30;;;;;;4969163;28;20402;-74
2022/03/21 12:59:45;;;;;;;28.90;21.13;;;18.60;49.50;;;;;;4986388;28;20041;-76